createdAt,value
2022-09-20T00:02:01.733Z,100415.41
2022-09-20T00:04:50.392Z,100419.00
2022-09-20T00:07:38.911Z,100421.84
2022-09-20T00:10:27.498Z,100425.34
2022-09-20T00:13:16.311Z,100418.41
2022-09-20T00:16:06.753Z,100427.69
2022-09-20T00:18:57.733Z,100419.16
2022-09-20T00:21:46.151Z,100417.72
2022-09-20T00:24:36.582Z,100424.41
2022-09-20T00:27:25.032Z,100426.91
2022-09-20T00:30:14.273Z,100429.34
2022-09-20T00:33:02.691Z,100427.44
2022-09-20T00:35:51.410Z,100428.28
2022-09-20T00:38:39.830Z,100432.72
2022-09-20T00:41:28.436Z,100430.13
2022-09-20T00:45:00.264Z,100433.38
2022-09-20T00:47:50.124Z,100434.19
2022-09-20T00:50:41.330Z,100431.59
2022-09-20T00:53:33.175Z,100428.28
2022-09-20T00:56:23.329Z,100426.78
2022-09-20T00:59:15.750Z,100434.66
2022-09-20T01:02:09.654Z,100429.72
2022-09-20T01:04:58.558Z,100424.69
2022-09-20T01:07:47.276Z,100426.34
2022-09-20T01:10:36.990Z,100427.13
2022-09-20T01:13:25.321Z,100426.13
2022-09-20T01:16:13.783Z,100423.41
2022-09-20T01:19:03.821Z,100435.34
2022-09-20T01:21:52.591Z,100428.69
2022-09-20T01:24:44.151Z,100427.38
2022-09-20T01:27:43.650Z,100426.84
2022-09-20T01:30:35.959Z,100428.88
2022-09-20T01:33:29.341Z,100430.72
2022-09-20T01:36:20.311Z,100429.00
2022-09-20T01:39:12.589Z,100430.78
2022-09-20T01:42:03.356Z,100429.09
2022-09-20T01:45:00.508Z,100423.94
2022-09-20T01:47:53.569Z,100424.84
2022-09-20T01:50:56.500Z,100419.91
2022-09-20T01:54:15.128Z,100421.81
2022-09-20T01:57:51.090Z,100428.03
2022-09-20T02:00:52.441Z,100433.59
2022-09-20T02:04:02.464Z,100427.97
2022-09-20T02:07:21.244Z,100429.28
2022-09-20T02:10:32.338Z,100433.94
2022-09-20T02:13:29.783Z,100427.25
2022-09-20T02:16:47.798Z,100435.16
2022-09-20T02:20:16.654Z,100438.00
2022-09-20T02:23:26.231Z,100436.44
2022-09-20T02:26:29.734Z,100429.69
2022-09-20T02:29:27.038Z,100423.72
2022-09-20T02:32:29.526Z,100426.09
2022-09-20T02:35:27.127Z,100418.91
2022-09-20T02:38:27.953Z,100419.53
2022-09-20T02:41:45.076Z,100423.00
2022-09-20T02:44:54.587Z,100426.28
2022-09-20T02:47:44.598Z,100427.78
2022-09-20T02:50:38.687Z,100427.78
2022-09-20T02:53:36.863Z,100419.13
2022-09-20T02:56:32.243Z,100431.13
2022-09-20T02:59:27.502Z,100431.25
2022-09-20T03:02:24.010Z,100430.44
2022-09-20T03:05:19.839Z,100430.66
2022-09-20T03:08:30.873Z,100432.63
2022-09-20T03:11:25.229Z,100430.09
2022-09-20T03:14:18.850Z,100436.09
2022-09-20T03:17:17.071Z,100447.25
2022-09-20T03:20:12.813Z,100456.78
2022-09-20T03:23:15.858Z,100456.06
2022-09-20T03:26:09.070Z,100459.59
2022-09-20T03:29:04.772Z,100457.09
2022-09-20T03:32:04.627Z,100447.91
2022-09-20T03:35:00.932Z,100454.97
2022-09-20T03:38:08.873Z,100456.06
2022-09-20T03:41:25.562Z,100461.28
2022-09-20T03:44:31.259Z,100450.47
2022-09-20T03:47:32.951Z,100451.56
2022-09-20T03:50:41.934Z,100462.06
2022-09-20T03:54:17.121Z,100466.44
2022-09-20T03:57:53.036Z,100463.06
2022-09-20T04:00:53.673Z,100465.78
2022-09-20T04:03:49.331Z,100463.19
2022-09-20T04:07:01.780Z,100464.16
2022-09-20T04:10:33.765Z,100458.22
2022-09-20T04:13:31.907Z,100459.94
2022-09-20T04:16:42.111Z,100461.72
2022-09-20T04:19:34.396Z,100459.25
2022-09-20T04:22:22.852Z,100460.31
2022-09-20T04:25:15.976Z,100465.72
2022-09-20T04:28:08.329Z,100461.59
2022-09-20T04:31:06.815Z,100469.47
2022-09-20T04:33:57.327Z,100473.00
2022-09-20T04:37:04.971Z,100478.38
2022-09-20T04:40:00.729Z,100481.94
2022-09-20T04:43:44.407Z,100477.78
2022-09-20T04:47:25.351Z,100480.44
2022-09-20T04:50:58.635Z,100489.19
2022-09-20T04:54:34.916Z,100480.75
2022-09-20T04:58:33.971Z,100489.47
2022-09-20T05:02:04.908Z,100490.41
2022-09-20T05:05:19.506Z,100493.09
2022-09-20T05:08:56.586Z,100501.78
2022-09-20T05:12:06.670Z,100512.09
2022-09-20T05:15:09.097Z,100512.09
2022-09-20T05:18:44.829Z,100512.09
2022-09-20T05:21:54.032Z,100510.31
2022-09-20T05:25:06.514Z,100515.41
2022-09-20T05:27:57.972Z,100515.41
2022-09-20T05:30:48.279Z,100510.19
2022-09-20T05:33:41.377Z,100514.47
2022-09-20T05:36:34.819Z,100524.66
2022-09-20T05:39:33.997Z,100517.78
2022-09-20T05:42:28.619Z,100523.00
2022-09-20T05:45:27.350Z,100524.63
2022-09-20T05:48:18.984Z,100528.97
2022-09-20T05:51:15.222Z,100528.06
2022-09-20T05:54:25.096Z,100530.59
2022-09-20T05:57:22.834Z,100535.47
2022-09-20T06:00:13.406Z,100526.78
2022-09-20T06:03:06.956Z,100531.69
2022-09-20T06:06:01.241Z,100539.41
2022-09-20T06:09:23.160Z,100538.41
2022-09-20T06:12:24.956Z,100549.00
2022-09-20T06:15:19.080Z,100546.19
2022-09-20T06:18:20.220Z,100542.03
2022-09-20T06:21:18.786Z,100532.03
2022-09-20T06:24:07.196Z,100535.44
2022-09-20T06:26:56.970Z,100523.88
2022-09-20T06:29:50.257Z,100531.22
2022-09-20T06:32:54.093Z,100541.97
2022-09-20T06:35:45.511Z,100537.50
2022-09-20T06:39:01.367Z,100539.94
2022-09-20T06:41:49.878Z,100538.84
2022-09-20T06:44:41.214Z,100539.34
2022-09-20T06:47:29.555Z,100543.59
2022-09-20T06:50:18.291Z,100527.28
2022-09-20T06:53:07.111Z,100522.53
2022-09-20T06:55:55.464Z,100517.25
2022-09-20T06:58:43.831Z,100516.69
2022-09-20T07:01:33.561Z,100515.66
2022-09-20T07:04:26.900Z,100516.28
2022-09-20T07:07:18.238Z,100517.84
2022-09-20T07:10:07.197Z,100520.09
2022-09-20T07:13:00.334Z,100515.75
2022-09-20T07:15:48.864Z,100521.25
2022-09-20T07:18:38.731Z,100530.53
2022-09-20T07:21:27.035Z,100520.88
2022-09-20T07:24:15.930Z,100522.56
2022-09-20T07:27:05.196Z,100519.00
2022-09-20T07:29:53.572Z,100529.19
2022-09-20T07:32:42.018Z,100530.13
2022-09-20T07:35:32.074Z,100534.25
2022-09-20T07:38:20.419Z,100536.53
2022-09-20T07:41:10.216Z,100545.66
2022-09-20T07:44:18.879Z,100540.34
2022-09-20T07:47:07.323Z,100540.47
2022-09-20T07:49:55.699Z,100539.56
2022-09-20T07:52:45.466Z,100547.13
2022-09-20T07:55:34.662Z,100547.88
2022-09-20T07:58:23.030Z,100554.66
2022-09-20T08:01:14.234Z,100556.25
2022-09-20T08:04:03.209Z,100555.91
2022-09-20T08:06:51.549Z,100553.47
2022-09-20T08:09:41.472Z,100551.22
2022-09-20T08:15:39.339Z,100558.41
2022-09-20T08:18:27.930Z,100571.44
2022-09-20T08:21:16.328Z,100561.22
2022-09-20T08:24:04.962Z,100558.03
2022-09-20T08:26:54.678Z,100563.25
2022-09-20T08:29:43.010Z,100567.91
2022-09-20T08:32:32.463Z,100560.25
2022-09-20T08:35:22.525Z,100563.72
2022-09-20T08:41:22.391Z,100567.06
2022-09-20T08:44:17.881Z,100568.81
2022-09-20T08:47:09.795Z,100568.72
2022-09-20T08:49:58.365Z,100564.28
2022-09-20T08:52:48.409Z,100568.56
2022-09-20T08:55:40.250Z,100561.84
2022-09-20T08:58:28.772Z,100566.28
2022-09-20T09:01:23.252Z,100556.28
2022-09-20T09:04:14.881Z,100562.06
2022-09-20T09:07:03.645Z,100547.19
2022-09-20T09:09:53.577Z,100558.66
2022-09-20T09:12:48.720Z,100552.47
2022-09-20T09:15:37.925Z,100555.84
2022-09-20T09:18:34.744Z,100557.16
2022-09-20T09:21:24.823Z,100565.22
2022-09-20T09:24:18.297Z,100559.84
2022-09-20T09:27:10.167Z,100552.47
2022-09-20T09:29:58.462Z,100562.00
2022-09-20T09:32:46.976Z,100563.78
2022-09-20T09:35:37.901Z,100550.72
2022-09-20T09:38:28.591Z,100561.94
2022-09-20T09:41:26.551Z,100558.59
2022-09-20T09:44:23.693Z,100557.19
2022-09-20T09:47:24.163Z,100564.53
2022-09-20T09:50:22.777Z,100567.81
2022-09-20T09:53:15.144Z,100565.00
2022-09-20T09:56:42.384Z,100565.84
2022-09-20T09:59:41.418Z,100560.34
2022-09-20T10:03:08.753Z,100559.13
2022-09-20T10:06:14.537Z,100550.31
2022-09-20T10:09:23.705Z,100553.81
2022-09-20T10:12:22.744Z,100556.47
2022-09-20T10:15:23.004Z,100557.63
2022-09-20T10:18:28.927Z,100542.19
2022-09-20T10:21:28.563Z,100538.06
2022-09-20T10:24:30.853Z,100539.50
2022-09-20T10:27:28.384Z,100524.59
2022-09-20T10:30:19.904Z,100535.00
2022-09-20T10:33:19.800Z,100527.31
2022-09-20T10:36:24.103Z,100528.41
2022-09-20T10:39:15.457Z,100529.94
2022-09-20T10:42:35.663Z,100529.59
2022-09-20T10:45:59.159Z,100513.78
2022-09-20T10:48:42.603Z,100517.75
2022-09-20T10:51:39.297Z,100517.03
2022-09-20T10:54:38.136Z,100530.47
2022-09-20T10:57:46.932Z,100524.00
2022-09-20T11:00:43.421Z,100530.47
2022-09-20T11:04:00.522Z,100536.94
2022-09-20T11:06:52.720Z,100535.84
2022-09-20T11:09:44.129Z,100540.56
2022-09-20T11:12:38.375Z,100546.56
2022-09-20T11:15:30.236Z,100556.72
2022-09-20T11:18:23.285Z,100554.03
2022-09-20T11:21:20.072Z,100567.06
2022-09-20T11:24:15.125Z,100560.06
2022-09-20T11:27:06.777Z,100562.88
2022-09-20T11:30:00.965Z,100553.81
2022-09-20T11:32:53.013Z,100561.91
2022-09-20T11:35:43.971Z,100563.91
2022-09-20T11:38:36.496Z,100560.19
2022-09-20T11:41:27.643Z,100565.00
2022-09-20T11:44:17.938Z,100559.44
2022-09-20T11:47:10.693Z,100564.69
2022-09-20T11:50:16.901Z,100550.69
2022-09-20T11:53:12.062Z,100562.84
2022-09-20T11:56:03.115Z,100563.56
2022-09-20T11:58:52.910Z,100560.66
2022-09-20T12:01:42.775Z,100557.81
2022-09-20T12:04:34.934Z,100554.75
2022-09-20T12:07:25.826Z,100547.22
2022-09-20T12:10:23.661Z,100552.94
2022-09-20T12:13:21.957Z,100537.75
2022-09-20T12:16:17.850Z,100534.81
2022-09-20T12:19:08.454Z,100532.22
2022-09-20T12:22:29.313Z,100535.00
2022-09-20T12:25:38.261Z,100540.91
2022-09-20T12:28:34.811Z,100543.38
2022-09-20T12:31:48.987Z,100541.31
2022-09-20T12:34:37.819Z,100538.75
2022-09-20T12:37:27.917Z,100535.59
2022-09-20T12:40:16.562Z,100532.31
2022-09-20T12:43:05.014Z,100534.03
2022-09-20T12:45:55.091Z,100520.00
2022-09-20T12:48:43.478Z,100523.09
2022-09-20T12:51:51.072Z,100526.19
2022-09-20T12:54:53.058Z,100521.44
2022-09-20T12:57:41.439Z,100511.72
2022-09-20T13:00:36.270Z,100518.97
2022-09-20T13:03:31.829Z,100520.31
2022-09-20T13:06:25.343Z,100516.88
2022-09-20T13:09:13.966Z,100517.38
2022-09-20T13:12:03.779Z,100514.66
2022-09-20T13:14:32.754Z,100509.31
2022-09-20T13:17:03.570Z,100512.53
2022-09-20T13:19:33.284Z,100515.16
2022-09-20T13:22:04.411Z,100507.09
2022-09-20T13:24:35.601Z,100500.28
2022-09-20T13:27:08.788Z,100504.81
2022-09-20T13:29:40.545Z,100508.47
2022-09-20T13:32:18.712Z,100510.16
2022-09-20T13:34:46.913Z,100515.66
2022-09-20T13:37:20.960Z,100512.09
2022-09-20T13:39:49.191Z,100518.75
2022-09-20T13:42:19.667Z,100519.53
2022-09-20T13:44:48.050Z,100525.53
2022-09-20T13:47:24.249Z,100520.72
2022-09-20T13:49:52.536Z,100512.28
2022-09-20T13:52:24.874Z,100511.78
2022-09-20T13:54:52.943Z,100516.47
2022-09-20T13:57:23.751Z,100520.28
2022-09-20T13:59:52.573Z,100520.78
2022-09-20T14:02:23.584Z,100529.72
2022-09-20T14:04:53.050Z,100526.16
2022-09-20T14:07:21.162Z,100522.84
2022-09-20T14:09:50.354Z,100532.81
2022-09-20T14:12:18.510Z,100523.00
2022-09-20T14:14:47.942Z,100527.84
2022-09-20T14:17:19.161Z,100518.91
2022-09-20T14:19:49.365Z,100521.69
2022-09-20T14:22:20.057Z,100523.75
2022-09-20T14:24:59.950Z,100523.19
2022-09-20T14:27:29.410Z,100515.66
2022-09-20T14:29:58.895Z,100519.75
2022-09-20T14:32:39.144Z,100506.69
2022-09-20T14:35:16.168Z,100506.47
2022-09-20T14:37:46.021Z,100502.06
2022-09-20T14:40:26.342Z,100508.44
2022-09-20T14:42:57.030Z,100500.72
2022-09-20T14:45:30.449Z,100500.06
2022-09-20T14:48:08.064Z,100505.38
2022-09-20T14:50:40.055Z,100503.59
2022-09-20T14:53:26.773Z,100499.06
2022-09-20T14:56:00.952Z,100504.75
2022-09-20T14:58:29.417Z,100502.03
2022-09-20T15:01:02.605Z,100496.91
2022-09-20T15:03:32.078Z,100499.69
2022-09-20T15:06:00.259Z,100494.06
2022-09-20T15:08:28.635Z,100494.97
2022-09-20T15:10:56.695Z,100496.75
2022-09-20T15:13:24.879Z,100498.34
2022-09-20T15:15:54.204Z,100499.75
2022-09-20T15:18:26.198Z,100494.06
2022-09-20T15:20:54.798Z,100498.91
2022-09-20T15:23:23.047Z,100501.31
2022-09-20T15:25:51.817Z,100493.63
2022-09-20T15:28:20.314Z,100498.00
2022-09-20T15:30:50.311Z,100496.34
2022-09-20T15:33:18.740Z,100495.44
2022-09-20T15:35:48.422Z,100502.72
2022-09-20T15:38:17.938Z,100499.09
2022-09-20T15:40:47.151Z,100501.31
2022-09-20T15:43:17.463Z,100493.19
2022-09-20T15:45:50.400Z,100498.19
2022-09-20T15:48:20.760Z,100508.69
2022-09-20T15:51:02.821Z,100503.19
2022-09-20T15:53:34.114Z,100509.84
2022-09-20T15:56:03.435Z,100508.44
2022-09-20T15:58:35.895Z,100502.28
2022-09-20T16:01:06.320Z,100502.03
2022-09-20T16:03:34.543Z,100505.84
2022-09-20T16:06:27.178Z,100499.88
2022-09-20T16:08:58.381Z,100507.88
2022-09-20T16:11:27.940Z,100507.69
2022-09-20T16:13:56.687Z,100511.81
2022-09-20T16:16:25.302Z,100514.97
2022-09-20T16:19:11.511Z,100518.78
2022-09-20T16:21:42.645Z,100519.88
2022-09-20T16:24:12.344Z,100519.47
2022-09-20T16:26:40.792Z,100514.50
2022-09-20T16:29:08.869Z,100518.38
2022-09-20T16:31:39.953Z,100520.41
2022-09-20T16:34:13.473Z,100520.41
2022-09-20T16:36:43.351Z,100521.88
2022-09-20T16:39:12.387Z,100531.19
2022-09-20T16:41:40.686Z,100531.16
2022-09-20T16:44:08.951Z,100526.84
2022-09-20T16:46:37.429Z,100531.53
2022-09-20T16:49:07.134Z,100529.78
2022-09-20T16:51:36.991Z,100533.16
2022-09-20T16:54:11.523Z,100530.44
2022-09-20T16:56:40.793Z,100530.53
2022-09-20T16:59:10.620Z,100535.81
2022-09-20T17:01:40.057Z,100543.22
2022-09-20T17:04:08.482Z,100536.66
2022-09-20T17:06:37.765Z,100540.34
2022-09-20T17:09:07.565Z,100550.25
2022-09-20T17:11:37.401Z,100550.69
2022-09-20T17:14:05.721Z,100560.66
2022-09-20T17:16:34.990Z,100553.59
2022-09-20T17:19:04.317Z,100562.13
2022-09-20T17:21:32.412Z,100558.56
2022-09-20T17:24:00.590Z,100565.34
2022-09-20T17:26:33.156Z,100579.03
2022-09-20T17:29:02.433Z,100582.34
2022-09-20T17:31:33.616Z,100577.72
2022-09-20T17:34:02.196Z,100584.53
2022-09-20T17:36:31.468Z,100586.09
2022-09-20T17:39:04.177Z,100590.41
2022-09-20T17:41:36.057Z,100595.63
2022-09-20T17:44:08.267Z,100592.03
2022-09-20T17:46:37.276Z,100588.47
2022-09-20T17:49:07.368Z,100592.56
2022-09-20T17:51:37.035Z,100590.59
2022-09-20T17:54:05.722Z,100594.69
2022-09-20T17:56:35.617Z,100592.03
2022-09-20T17:59:05.173Z,100601.34
2022-09-20T18:01:34.926Z,100607.91
2022-09-20T18:04:04.306Z,100599.88
2022-09-20T18:06:33.891Z,100609.78
2022-09-20T18:09:03.502Z,100609.19
2022-09-20T18:11:34.107Z,100608.69
2022-09-20T18:14:02.533Z,100611.69
2022-09-20T18:16:30.906Z,100614.59
2022-09-20T18:18:59.985Z,100625.19
2022-09-20T18:21:29.865Z,100625.53
2022-09-20T18:23:58.949Z,100623.25
2022-09-20T18:26:28.685Z,100628.69
2022-09-20T18:29:01.386Z,100630.50
2022-09-20T18:31:32.172Z,100636.81
2022-09-20T18:34:01.168Z,100639.63
2022-09-20T18:36:29.723Z,100637.50
2022-09-20T18:38:58.162Z,100648.84
2022-09-20T18:41:27.632Z,100646.56
2022-09-20T18:43:56.372Z,100652.78
2022-09-20T18:46:27.060Z,100653.72
2022-09-20T18:48:57.141Z,100659.03
2022-09-20T18:51:25.876Z,100663.28
2022-09-20T18:53:54.438Z,100667.59
2022-09-20T18:56:25.067Z,100671.94
2022-09-20T18:58:54.327Z,100671.16
2022-09-20T19:01:49.595Z,100668.78
2022-09-20T19:04:33.635Z,100677.84
2022-09-20T19:07:08.821Z,100684.22
2022-09-20T19:09:41.949Z,100681.88
2022-09-20T19:12:17.041Z,100677.78
2022-09-20T19:15:09.759Z,100680.59
2022-09-20T19:17:53.627Z,100686.81
2022-09-20T19:20:25.313Z,100685.31
2022-09-20T19:23:01.374Z,100698.31
2022-09-20T19:25:32.291Z,100700.91
2022-09-20T19:28:00.866Z,100703.44
2022-09-20T19:30:30.152Z,100708.66
2022-09-20T19:33:02.668Z,100705.38
2022-09-20T19:35:35.570Z,100713.97
2022-09-20T19:38:10.093Z,100712.91
2022-09-20T19:40:44.748Z,100713.53
2022-09-20T19:43:35.005Z,100721.88
2022-09-20T19:46:10.711Z,100710.47
2022-09-20T19:48:40.999Z,100714.63
2022-09-20T19:51:11.902Z,100715.41
2022-09-20T19:53:40.623Z,100717.00
2022-09-20T19:56:21.312Z,100711.72
2022-09-20T19:58:52.950Z,100712.47
2022-09-20T20:01:22.543Z,100719.31
2022-09-20T20:04:11.880Z,100717.56
2022-09-20T20:07:04.765Z,100710.81
2022-09-20T20:09:57.190Z,100728.91
2022-09-20T20:12:51.299Z,100716.06
2022-09-20T20:15:44.385Z,100722.09
2022-09-20T20:18:39.025Z,100725.56
2022-09-20T20:21:36.140Z,100727.97
2022-09-20T20:24:28.367Z,100734.63
2022-09-20T20:27:16.681Z,100723.13
2022-09-20T20:30:06.447Z,100727.16
2022-09-20T20:32:57.964Z,100724.28
2022-09-20T20:35:53.801Z,100717.13
2022-09-20T20:38:49.430Z,100719.38
2022-09-20T20:41:38.591Z,100722.63
2022-09-20T20:44:27.443Z,100720.69
2022-09-20T20:47:15.939Z,100724.66
2022-09-20T20:50:04.556Z,100724.38
2022-09-20T20:52:53.993Z,100732.81
2022-09-20T20:55:44.083Z,100731.94
2022-09-20T20:58:33.390Z,100725.97
2022-09-20T21:01:23.087Z,100738.22
2022-09-20T21:04:12.226Z,100736.53
2022-09-20T21:07:01.051Z,100740.84
2022-09-20T21:09:49.543Z,100740.06
2022-09-20T21:12:39.226Z,100739.34
2022-09-20T21:15:27.927Z,100741.22
2022-09-20T21:18:16.311Z,100737.06
2022-09-20T21:21:05.263Z,100749.31
2022-09-20T21:23:54.912Z,100756.28
2022-09-20T21:26:43.278Z,100753.03
2022-09-20T21:29:33.024Z,100752.34
2022-09-20T21:32:21.383Z,100759.34
2022-09-20T21:35:10.414Z,100755.19
2022-09-20T21:37:58.829Z,100760.59
2022-09-20T21:40:47.152Z,100754.88
2022-09-20T21:43:36.060Z,100759.63
2022-09-20T21:46:28.238Z,100751.31
2022-09-20T21:49:16.706Z,100755.94
2022-09-20T21:52:05.787Z,100750.13
2022-09-20T21:54:54.143Z,100749.47
2022-09-20T21:57:42.791Z,100752.34
2022-09-20T22:00:31.216Z,100754.34
2022-09-20T22:03:20.947Z,100758.84
2022-09-20T22:06:11.754Z,100757.38
2022-09-20T22:09:02.048Z,100751.53
2022-09-20T22:11:50.445Z,100761.97
2022-09-20T22:14:39.877Z,100758.69
2022-09-20T22:17:29.501Z,100762.19
2022-09-20T22:20:19.281Z,100765.66
2022-09-20T22:23:07.742Z,100762.19
2022-09-20T22:26:01.114Z,100769.91
2022-09-20T22:28:50.158Z,100756.25
2022-09-20T22:31:41.415Z,100766.59
2022-09-20T22:34:29.883Z,100759.56
2022-09-20T22:37:19.618Z,100759.28
2022-09-20T22:40:08.843Z,100755.72
2022-09-20T22:42:57.370Z,100758.94
2022-09-20T22:45:45.799Z,100756.94
2022-09-20T22:48:34.507Z,100760.25
2022-09-20T22:51:24.515Z,100754.13
2022-09-20T22:54:14.308Z,100760.91
2022-09-20T22:57:02.688Z,100754.81
2022-09-20T22:59:51.111Z,100755.72
2022-09-20T23:02:39.533Z,100754.94
2022-09-20T23:05:27.990Z,100759.19
2022-09-20T23:08:16.430Z,100764.28
2022-09-20T23:11:06.792Z,100759.84
2022-09-20T23:13:55.710Z,100760.59
2022-09-20T23:16:44.380Z,100751.88
2022-09-20T23:19:32.892Z,100756.09
2022-09-20T23:22:21.250Z,100758.72
2022-09-20T23:25:10.809Z,100752.81
2022-09-20T23:28:00.548Z,100749.44
2022-09-20T23:30:49.025Z,100747.78
2022-09-20T23:33:37.516Z,100750.56
2022-09-20T23:36:26.796Z,100761.06
2022-09-20T23:39:15.302Z,100754.44
2022-09-20T23:42:03.736Z,100757.94
2022-09-20T23:44:53.437Z,100757.22
2022-09-20T23:47:41.850Z,100760.88
2022-09-20T23:50:30.244Z,100764.56
2022-09-20T23:53:18.694Z,100769.09
2022-09-20T23:56:07.494Z,100767.53
2022-09-20T23:58:55.899Z,100767.63
